Terminal Aerodrome Forecast
Issued by NWS Nashville, TN

Home | Current Version | Previous Version | Text Only | Print | Product List | Glossary On
Versions: 1 2 3 4 5 6 7 8 9 10 11 12 13 14 15 16 17 18 19 20 21 22 23 24 25 26 27 28 29 30 31
000
FTUS44 KOHX 282322
TAFBNA
TAF
KBNA 282322Z 2900/2924 25007KT P6SM BKN050 BKN250
     FM290300 23006KT P6SM VCSH BKN050
     FM290500 28004KT P6SM SCT050
     FM290800 34002KT 4SM BR SCT030
     FM291400 32005KT P6SM SCT030
     FM292100 27004KT P6SM SCT050=

USA.gov is the U.S. government's official web portal to all federal, state and local government web resources and services.